Time;durP1;ratioP1;P1;durP2;ratioP2;P2;SDS_P1;SDS_P2;PMS_P1;PMS_P2;Temp;Humidity;BMP_temperature;BMP_pressure;BME280_temperature;BME280_humidity;BME280_pressure;Samples;Min_cycle;Max_cycle;Signal;HPM_P1;HPM_P2
2021/06/10 00:00:13;;;;;;;6.90;6.37;;;19.60;1.00;;;;;;5094453;28;20794;-79
2021/06/10 00:02:41;;;;;;;5.70;5.20;;;19.60;99.90;;;;;;5091069;28;20847;-79
2021/06/10 00:05:11;;;;;;;6.00;5.40;;;19.60;99.90;;;;;;5127657;27;20481;-80
2021/06/10 00:07:39;;;;;;;7.57;6.77;;;19.60;99.90;;;;;;5126048;27;20438;-80
2021/06/10 00:10:11;;;;;;;6.20;5.60;;;19.50;99.90;;;;;;5089486;28;20448;-79
2021/06/10 00:12:39;;;;;;;8.93;6.40;;;19.50;99.90;;;;;;5091478;28;20561;-80
2021/06/10 00:15:09;;;;;;;7.60;5.90;;;19.50;99.90;;;;;;5090506;28;20450;-80
2021/06/10 00:17:37;;;;;;;6.87;6.27;;;19.40;99.90;;;;;;5092290;28;20455;-79
2021/06/10 00:20:07;;;;;;;7.50;6.80;;;19.40;1.00;;;;;;5089336;28;20468;-79
2021/06/10 00:22:35;;;;;;;7.30;6.60;;;19.40;1.00;;;;;;5080550;28;20508;-80
2021/06/10 00:25:03;;;;;;;6.73;6.13;;;19.40;1.00;;;;;;5100088;28;20446;-79
2021/06/10 00:27:33;;;;;;;6.70;6.13;;;19.40;1.00;;;;;;5088764;28;20494;-80
2021/06/10 00:30:00;;;;;;;7.63;6.37;;;19.40;1.00;;;;;;5087882;28;20453;-78
2021/06/10 00:32:28;;;;;;;9.27;5.90;;;19.30;1.00;;;;;;5088552;28;20534;-80
2021/06/10 00:34:55;;;;;;;7.13;6.47;;;19.30;1.00;;;;;;5091235;28;20446;-81
2021/06/10 00:37:23;;;;;;;6.57;5.93;;;19.30;1.00;;;;;;5089962;28;20452;-79
2021/06/10 00:39:51;;;;;;;7.23;6.70;;;19.30;1.00;;;;;;5090257;28;20457;-78
2021/06/10 00:42:18;;;;;;;5.93;5.40;;;19.30;1.00;;;;;;5090410;28;20476;-80
2021/06/10 00:44:47;;;;;;;8.20;7.40;;;19.30;1.00;;;;;;5091049;28;20472;-79
2021/06/10 00:47:15;;;;;;;6.93;6.33;;;19.30;1.00;;;;;;5084947;28;20461;-78
2021/06/10 00:49:43;;;;;;;9.20;6.40;;;19.40;1.00;;;;;;5089206;28;20461;-79
2021/06/10 00:52:12;;;;;;;6.67;5.97;;;19.30;99.90;;;;;;5086517;28;20453;-79
2021/06/10 00:54:40;;;;;;;6.37;5.77;;;19.20;1.00;;;;;;5089189;28;20453;-78
2021/06/10 00:57:09;;;;;;;6.60;5.83;;;19.20;1.00;;;;;;5090784;28;20467;-79
2021/06/10 00:59:37;;;;;;;8.30;6.67;;;19.20;1.00;;;;;;5089512;28;20445;-79
2021/06/10 01:02:06;;;;;;;6.60;6.00;;;19.20;1.00;;;;;;5089145;28;21002;-79
2021/06/10 01:04:34;;;;;;;5.77;5.27;;;19.20;1.00;;;;;;5089772;28;20458;-77
2021/06/10 01:07:07;;;;;;;6.00;5.43;;;19.20;1.00;;;;;;5095055;28;20464;-79
2021/06/10 01:09:40;;;;;;;7.37;6.67;;;19.10;1.00;;;;;;5088161;28;20544;-80
2021/06/10 01:12:15;;;;;;;7.30;6.60;;;19.10;1.00;;;;;;5081881;28;20449;-79
2021/06/10 01:14:46;;;;;;;8.00;7.20;;;19.10;1.00;;;;;;5073754;28;21206;-81
2021/06/10 01:17:16;;;;;;;9.27;7.10;;;19.10;1.00;;;;;;5087773;28;20483;-78
2021/06/10 01:20:06;;;;;;;7.40;6.70;;;19.10;1.00;;;;;;5087330;28;20472;-78
2021/06/10 01:22:40;;;;;;;7.30;6.37;;;19.20;1.00;;;;;;5085131;28;20514;-79
2021/06/10 01:25:22;;;;;;;6.50;5.90;;;19.10;1.00;;;;;;5088305;28;20445;-80
2021/06/10 01:27:53;;;;;;;6.83;6.20;;;19.10;1.00;;;;;;5086972;28;20442;-78
2021/06/10 01:30:24;;;;;;;12.13;7.40;;;19.00;1.00;;;;;;5089799;28;20449;-78
2021/06/10 01:32:55;;;;;;;6.20;5.70;;;19.00;1.00;;;;;;5089004;28;20502;-77
2021/06/10 01:35:25;;;;;;;8.70;6.17;;;19.00;1.00;;;;;;5090031;28;20534;-77
2021/06/10 01:37:55;;;;;;;6.43;5.83;;;19.10;1.00;;;;;;5085371;28;20525;-78
2021/06/10 01:40:26;;;;;;;6.20;5.70;;;19.10;1.00;;;;;;5090930;28;20463;-79
2021/06/10 01:42:57;;;;;;;6.13;5.60;;;19.00;1.00;;;;;;5091653;28;20484;-78
2021/06/10 01:45:26;;;;;;;8.97;6.63;;;19.00;1.00;;;;;;5091321;28;20473;-77
2021/06/10 01:47:55;;;;;;;6.13;5.63;;;19.00;1.00;;;;;;5089918;28;20837;-78
2021/06/10 01:50:24;;;;;;;5.80;5.30;;;19.00;1.00;;;;;;5094525;28;20867;-78
2021/06/10 01:52:54;;;;;;;6.93;6.30;;;19.00;99.90;;;;;;5080682;28;20449;-79
2021/06/10 01:55:28;;;;;;;6.30;5.70;;;18.90;99.90;;;;;;5076190;28;20470;-78
2021/06/10 01:57:58;;;;;;;5.87;5.37;;;18.90;1.00;;;;;;5080457;28;20441;-79
2021/06/10 02:00:27;;;;;;;6.53;5.93;;;18.90;1.00;;;;;;5090475;28;20460;-76
2021/06/10 02:02:55;;;;;;;6.90;6.23;;;18.90;1.00;;;;;;5091672;28;20484;-78
2021/06/10 02:05:24;;;;;;;8.40;6.30;;;18.80;1.00;;;;;;5088646;28;20477;-80
2021/06/10 02:07:52;;;;;;;6.23;5.50;;;18.80;99.90;;;;;;5081075;28;20440;-78
2021/06/10 02:10:24;;;;;;;6.93;6.23;;;18.70;99.90;;;;;;5089558;28;20479;-80
2021/06/10 02:12:52;;;;;;;6.60;6.00;;;18.70;99.90;;;;;;5086393;28;20498;-79
2021/06/10 02:15:22;;;;;;;8.87;6.63;;;18.70;99.90;;;;;;5091836;28;20460;-79
2021/06/10 02:17:50;;;;;;;5.37;4.87;;;18.70;1.00;;;;;;5089931;28;20915;-78
2021/06/10 02:20:21;;;;;;;7.23;6.27;;;18.70;99.90;;;;;;5089757;28;20477;-79
2021/06/10 02:22:49;;;;;;;5.73;5.13;;;18.60;99.90;;;;;;5089388;28;20465;-79
2021/06/10 02:25:17;;;;;;;7.10;6.20;;;18.60;99.90;;;;;;5087360;28;20472;-80
2021/06/10 02:27:45;;;;;;;7.07;6.43;;;18.60;1.00;;;;;;5090229;28;20448;-79
2021/06/10 02:30:15;;;;;;;6.83;6.20;;;18.60;1.00;;;;;;5089957;28;20444;-79
2021/06/10 02:32:44;;;;;;;6.77;6.10;;;18.60;1.00;;;;;;5080151;28;20441;-79
2021/06/10 02:35:13;;;;;;;7.93;6.43;;;18.60;1.00;;;;;;5088212;28;20517;-77
2021/06/10 02:37:46;;;;;;;7.13;6.53;;;18.60;99.90;;;;;;5087096;28;20451;-77
2021/06/10 02:40:18;;;;;;;7.97;7.17;;;18.60;99.90;;;;;;5086458;28;20568;-80
2021/06/10 02:42:47;;;;;;;6.63;5.90;;;18.60;99.90;;;;;;5089316;28;20464;-80
2021/06/10 02:45:16;;;;;;;6.20;5.70;;;18.60;99.90;;;;;;5090990;28;20540;-79
2021/06/10 02:47:46;;;;;;;7.70;6.90;;;18.60;99.90;;;;;;5091849;28;20449;-76
2021/06/10 02:50:18;;;;;;;7.23;6.53;;;18.60;1.00;;;;;;5089511;28;20467;-79
2021/06/10 02:52:49;;;;;;;5.73;5.33;;;18.50;1.00;;;;;;5085747;28;20460;-79
2021/06/10 02:55:19;;;;;;;9.47;5.90;;;18.50;1.00;;;;;;5087350;28;20480;-78
2021/06/10 02:57:51;;;;;;;7.50;6.17;;;18.50;1.00;;;;;;5087975;28;20523;-77
2021/06/10 03:00:22;;;;;;;6.13;5.53;;;18.50;99.90;;;;;;5086886;28;20441;-78
2021/06/10 03:02:52;;;;;;;6.40;5.90;;;18.50;99.90;;;;;;5087611;28;20476;-78
2021/06/10 03:05:22;;;;;;;5.80;5.20;;;18.50;99.90;;;;;;5086265;28;20475;-77
2021/06/10 03:07:50;;;;;;;5.83;5.23;;;18.40;99.90;;;;;;5086888;28;20470;-81
2021/06/10 03:10:22;;;;;;;12.07;6.60;;;18.40;99.90;;;;;;5083799;28;20486;-80
2021/06/10 03:12:51;;;;;;;6.77;5.50;;;18.40;99.90;;;;;;5088979;28;20453;-79
2021/06/10 03:15:20;;;;;;;7.53;6.83;;;18.40;99.90;;;;;;5120371;28;20476;-78
2021/06/10 03:17:50;;;;;;;6.57;5.90;;;18.40;99.90;;;;;;5088369;28;20466;-78
2021/06/10 03:20:18;;;;;;;6.10;5.50;;;18.50;99.90;;;;;;5087642;28;20561;-78
2021/06/10 03:22:46;;;;;;;9.17;6.53;;;18.30;99.90;;;;;;5087911;28;20463;-78
2021/06/10 03:25:16;;;;;;;5.67;5.17;;;18.30;99.90;;;;;;5088677;28;20487;-78
2021/06/10 03:27:45;;;;;;;6.13;5.53;;;18.30;99.90;;;;;;5085422;28;21025;-76
2021/06/10 03:30:14;;;;;;;5.70;5.20;;;18.30;99.90;;;;;;5087457;28;21116;-78
2021/06/10 03:32:42;;;;;;;6.17;5.60;;;18.30;99.90;;;;;;5086669;28;20447;-78
2021/06/10 03:35:12;;;;;;;6.53;5.93;;;18.30;99.90;;;;;;5089834;28;22238;-78
2021/06/10 03:37:41;;;;;;;5.93;5.33;;;18.30;99.90;;;;;;5089611;28;20494;-79
2021/06/10 03:40:11;;;;;;;7.13;6.43;;;18.30;99.90;;;;;;5090610;28;20451;-79
2021/06/10 03:42:40;;;;;;;7.43;5.60;;;18.30;99.90;;;;;;5124763;27;20490;-79
2021/06/10 03:45:10;;;;;;;16.33;7.00;;;18.30;99.90;;;;;;5088941;28;20467;-78
2021/06/10 03:47:38;;;;;;;6.90;5.33;;;18.30;99.90;;;;;;5088024;28;20453;-77
2021/06/10 03:50:08;;;;;;;6.23;5.73;;;18.20;99.90;;;;;;5090206;28;20450;-80
2021/06/10 03:52:37;;;;;;;5.90;4.77;;;18.20;99.90;;;;;;5091585;28;20535;-80
2021/06/10 03:55:07;;;;;;;7.93;5.50;;;18.20;99.90;;;;;;5092410;28;20508;-78
2021/06/10 03:57:36;;;;;;;7.60;5.60;;;18.20;99.90;;;;;;5090854;28;21150;-78
2021/06/10 04:00:06;;;;;;;9.73;6.50;;;18.20;99.90;;;;;;5092622;28;20440;-78
2021/06/10 04:02:36;;;;;;;7.03;6.33;;;18.20;99.90;;;;;;5093831;28;20473;-80
2021/06/10 04:05:05;;;;;;;7.03;6.13;;;18.20;99.90;;;;;;5093511;28;20515;-80
2021/06/10 04:07:33;;;;;;;7.30;6.53;;;18.20;1.00;;;;;;5092951;28;20446;-79
2021/06/10 04:10:02;;;;;;;6.77;6.00;;;18.20;1.00;;;;;;5092206;28;20434;-77
2021/06/10 04:12:29;;;;;;;5.67;5.17;;;18.20;1.00;;;;;;5088772;28;20483;-79
2021/06/10 04:14:58;;;;;;;6.40;5.80;;;18.20;1.00;;;;;;5090413;28;20455;-80
2021/06/10 04:17:27;;;;;;;6.13;5.63;;;18.20;1.00;;;;;;5091061;28;20805;-80
2021/06/10 04:19:54;;;;;;;6.10;5.60;;;18.20;1.00;;;;;;5090184;28;20849;-78
2021/06/10 04:22:22;;;;;;;13.90;6.43;;;18.20;1.00;;;;;;5089173;28;20467;-80
2021/06/10 04:24:52;;;;;;;10.37;6.67;;;18.20;1.00;;;;;;5090821;28;21359;-78
2021/06/10 04:27:21;;;;;;;6.73;6.13;;;18.20;1.00;;;;;;5091111;28;20449;-79
2021/06/10 04:29:49;;;;;;;7.57;6.77;;;18.20;1.00;;;;;;5089654;28;20999;-78
2021/06/10 04:32:17;;;;;;;8.07;7.27;;;18.30;1.00;;;;;;5089384;28;20440;-78
2021/06/10 04:34:45;;;;;;;9.30;6.20;;;18.30;1.00;;;;;;5088606;28;20543;-81
2021/06/10 04:37:12;;;;;;;8.10;6.90;;;18.30;1.00;;;;;;5090645;28;20531;-79
2021/06/10 04:39:40;;;;;;;8.03;7.00;;;18.20;1.00;;;;;;5089675;28;20512;-79
2021/06/10 04:42:09;;;;;;;8.87;7.23;;;18.30;1.00;;;;;;5089528;28;20439;-79
2021/06/10 04:44:38;;;;;;;6.97;6.37;;;18.30;1.00;;;;;;5120852;27;21288;-78
2021/06/10 04:47:05;;;;;;;8.67;7.10;;;18.30;1.00;;;;;;5096237;28;20483;-79
2021/06/10 04:49:35;;;;;;;7.70;7.00;;;18.30;1.00;;;;;;5091235;28;20459;-76
2021/06/10 04:52:04;;;;;;;7.63;6.93;;;18.30;1.00;;;;;;5126864;27;20456;-79
2021/06/10 04:54:33;;;;;;;6.40;5.87;;;18.30;1.00;;;;;;5082027;28;20489;-81
2021/06/10 04:57:02;;;;;;;9.37;6.30;;;18.40;41.60;;;;;;5089387;28;20459;-79
2021/06/10 04:59:29;;;;;;;10.30;6.33;;;18.40;33.10;;;;;;5094206;28;20440;-79
2021/06/10 05:01:58;;;;;;;6.77;6.07;;;18.40;95.50;;;;;;5089333;28;20451;-77
2021/06/10 05:04:26;;;;;;;7.50;6.80;;;18.50;75.10;;;;;;5100825;28;20438;-80
2021/06/10 05:06:54;;;;;;;8.60;7.70;;;18.50;99.90;;;;;;5088009;28;20486;-80
2021/06/10 05:09:22;;;;;;;7.90;6.47;;;18.50;99.90;;;;;;5088152;28;20463;-79
2021/06/10 05:11:49;;;;;;;9.03;6.87;;;18.50;99.90;;;;;;5090624;28;20447;-79
2021/06/10 05:14:20;;;;;;;8.20;7.40;;;18.60;99.90;;;;;;5093697;28;20460;-80
2021/06/10 05:16:48;;;;;;;7.33;6.67;;;18.60;99.90;;;;;;5093492;28;20474;-81
2021/06/10 05:19:18;;;;;;;7.43;6.73;;;18.60;99.90;;;;;;5090894;28;20530;-84
2021/06/10 05:21:46;;;;;;;6.83;6.03;;;18.60;99.90;;;;;;5098920;28;20527;-79
2021/06/10 05:24:15;;;;;;;6.37;5.77;;;18.70;99.90;;;;;;5100229;28;20455;-80
2021/06/10 05:26:43;;;;;;;8.23;6.70;;;18.70;99.90;;;;;;5081783;28;20518;-81
2021/06/10 05:29:10;;;;;;;6.83;6.20;;;18.70;1.00;;;;;;5089909;28;20462;-79
2021/06/10 05:31:38;;;;;;;8.13;7.40;;;18.80;1.00;;;;;;5098271;28;20443;-80
2021/06/10 05:34:06;;;;;;;7.57;6.77;;;18.90;1.00;;;;;;5093064;28;20968;-80
2021/06/10 05:36:35;;;;;;;7.27;6.63;;;18.90;99.90;;;;;;5093812;28;20967;-81
2021/06/10 05:39:03;;;;;;;7.67;6.57;;;18.90;1.00;;;;;;5080024;28;20433;-79
2021/06/10 05:41:31;;;;;;;8.43;7.63;;;19.00;1.00;;;;;;5090383;28;20475;-80
2021/06/10 05:43:59;;;;;;;7.67;6.97;;;19.00;99.90;;;;;;5090980;28;20471;-80
2021/06/10 05:46:27;;;;;;;7.27;6.67;;;19.10;99.90;;;;;;5097160;28;20453;-79
2021/06/10 05:48:55;;;;;;;7.43;6.73;;;19.10;99.90;;;;;;5076659;28;20513;-80
2021/06/10 05:51:23;;;;;;;7.73;7.03;;;19.10;99.90;;;;;;5086648;28;20812;-80
2021/06/10 05:53:52;;;;;;;8.37;6.97;;;19.20;99.90;;;;;;5083452;28;20814;-79
2021/06/10 05:56:19;;;;;;;6.27;5.63;;;19.20;99.90;;;;;;5078695;28;20469;-79
2021/06/10 05:58:47;;;;;;;7.17;6.50;;;19.20;99.90;;;;;;5084692;28;20470;-80
2021/06/10 06:01:15;;;;;;;5.77;5.03;;;19.30;1.00;;;;;;5084860;28;20450;-80
2021/06/10 06:03:44;;;;;;;6.43;5.83;;;19.30;99.90;;;;;;5087333;28;21007;-78
2021/06/10 06:06:12;;;;;;;6.70;5.33;;;19.40;99.90;;;;;;5087360;28;20471;-78
2021/06/10 06:08:39;;;;;;;6.17;5.60;;;19.40;99.90;;;;;;5086112;28;20499;-79
2021/06/10 06:11:08;;;;;;;6.47;5.93;;;19.40;99.90;;;;;;5078654;28;20518;-80
2021/06/10 06:13:45;;;;;;;7.10;5.50;;;19.50;99.90;;;;;;5083177;28;20936;-79
2021/06/10 06:16:14;;;;;;;6.17;5.57;;;19.50;99.90;;;;;;5086427;28;20467;-79
2021/06/10 06:18:43;;;;;;;5.73;5.30;;;19.60;99.90;;;;;;5084220;28;20450;-80
2021/06/10 06:21:11;;;;;;;6.43;5.90;;;19.60;22.50;;;;;;5081698;28;20464;-79
2021/06/10 06:23:41;;;;;;;6.33;5.73;;;19.70;1.00;;;;;;5079142;28;20466;-80
2021/06/10 06:26:10;;;;;;;7.00;6.30;;;19.70;1.00;;;;;;5089919;28;20477;-79
2021/06/10 06:28:40;;;;;;;6.07;5.47;;;19.80;1.00;;;;;;5088385;28;20460;-79
2021/06/10 06:31:07;;;;;;;7.50;6.80;;;19.80;99.90;;;;;;5080812;28;20452;-81
2021/06/10 06:33:35;;;;;;;5.97;5.37;;;19.90;1.00;;;;;;5086576;28;20523;-79
2021/06/10 06:36:03;;;;;;;6.60;6.00;;;20.00;99.90;;;;;;5086519;28;20482;-79
2021/06/10 06:38:31;;;;;;;6.07;5.57;;;20.00;99.90;;;;;;5080810;28;20499;-80
2021/06/10 06:40:59;;;;;;;7.00;6.37;;;20.10;12.50;;;;;;5086403;28;20468;-81
2021/06/10 06:43:30;;;;;;;6.10;5.60;;;20.20;1.00;;;;;;5086997;28;20481;-79
2021/06/10 06:45:58;;;;;;;6.80;6.20;;;20.20;1.00;;;;;;5083688;28;20454;-80
2021/06/10 06:48:28;;;;;;;6.10;5.50;;;20.30;1.00;;;;;;5080117;28;20464;-80
2021/06/10 06:50:56;;;;;;;6.20;5.70;;;20.30;1.00;;;;;;5085075;28;20480;-79
2021/06/10 06:53:23;;;;;;;6.37;5.77;;;20.40;1.00;;;;;;5087788;28;20449;-80
2021/06/10 06:55:51;;;;;;;10.43;6.27;;;20.40;99.90;;;;;;5093301;28;21027;-81
2021/06/10 06:58:19;;;;;;;5.57;4.90;;;20.50;99.90;;;;;;5072037;28;20451;-80
2021/06/10 07:00:48;;;;;;;7.23;5.50;;;20.60;99.90;;;;;;5088980;28;20438;-79
2021/06/10 07:03:15;;;;;;;6.47;5.87;;;20.70;99.90;;;;;;5089946;28;20995;-81
2021/06/10 07:05:43;;;;;;;6.00;5.40;;;20.90;99.90;;;;;;5090811;28;20479;-80
2021/06/10 07:08:11;;;;;;;5.97;5.10;;;20.90;99.90;;;;;;5087642;28;20827;-80
2021/06/10 07:10:41;;;;;;;6.80;5.43;;;21.00;99.90;;;;;;5083760;28;20947;-80
2021/06/10 07:13:09;;;;;;;5.00;4.60;;;21.10;99.90;;;;;;5083524;28;20507;-80
2021/06/10 07:15:39;;;;;;;5.50;5.00;;;21.20;99.90;;;;;;5087418;28;20466;-80
2021/06/10 07:18:08;;;;;;;5.43;4.90;;;21.20;99.90;;;;;;5079117;28;20456;-79
2021/06/10 07:20:36;;;;;;;5.27;4.87;;;21.30;99.90;;;;;;5091864;28;20457;-79
2021/06/10 07:23:04;;;;;;;5.03;4.20;;;21.30;98.30;;;;;;5089030;28;20445;-80
2021/06/10 07:25:31;;;;;;;5.73;5.23;;;21.40;99.90;;;;;;5092166;28;20458;-80
2021/06/10 07:27:59;;;;;;;5.90;5.40;;;21.40;82.80;;;;;;5083520;28;20449;-79
2021/06/10 07:30:27;;;;;;;5.70;5.20;;;21.40;93.70;;;;;;5090320;28;21014;-80
2021/06/10 07:32:54;;;;;;;6.03;5.60;;;21.40;1.00;;;;;;5084215;28;20445;-80
2021/06/10 07:35:24;;;;;;;6.20;5.60;;;21.50;17.50;;;;;;5085600;28;20512;-80
2021/06/10 07:37:53;;;;;;;7.13;6.43;;;21.60;99.90;;;;;;5082927;28;20957;-81
2021/06/10 07:40:23;;;;;;;6.73;6.13;;;21.70;99.90;;;;;;5085311;28;20461;-80
2021/06/10 07:42:51;;;;;;;7.70;7.10;;;21.70;99.90;;;;;;5095256;27;20435;-79
2021/06/10 07:45:19;;;;;;;6.80;6.10;;;21.70;38.70;;;;;;5087351;28;20764;-80
2021/06/10 07:47:47;;;;;;;6.90;5.70;;;21.80;7.50;;;;;;5084475;28;20457;-80
2021/06/10 07:50:15;;;;;;;7.37;5.77;;;21.80;25.20;;;;;;5083123;28;20450;-81
2021/06/10 07:52:44;;;;;;;6.03;5.53;;;21.80;7.40;;;;;;5087939;28;20461;-79
2021/06/10 07:55:12;;;;;;;5.73;4.83;;;21.90;1.00;;;;;;5088423;28;20461;-80
2021/06/10 07:57:40;;;;;;;6.90;6.10;;;21.90;10.50;;;;;;5085422;28;20470;-78
2021/06/10 08:00:09;;;;;;;6.33;5.77;;;22.00;1.00;;;;;;5087063;28;20463;-80
2021/06/10 08:02:40;;;;;;;5.40;4.90;;;22.00;1.00;;;;;;5078538;28;20443;-79
2021/06/10 08:05:10;;;;;;;6.70;6.00;;;22.10;19.30;;;;;;5085878;28;20469;-79
2021/06/10 08:07:42;;;;;;;9.10;7.60;;;22.10;1.00;;;;;;5088226;28;20450;-80
2021/06/10 08:10:12;;;;;;;7.17;6.50;;;22.10;1.00;;;;;;5085816;28;21016;-79
2021/06/10 08:12:44;;;;;;;7.60;6.90;;;22.10;1.00;;;;;;5089937;28;20443;-81
2021/06/10 08:15:13;;;;;;;6.30;5.70;;;22.10;1.00;;;;;;5080830;28;20499;-79
2021/06/10 08:17:41;;;;;;;6.93;6.30;;;22.20;1.00;;;;;;5085320;28;20447;-78
2021/06/10 08:20:11;;;;;;;7.13;6.53;;;22.30;48.40;;;;;;5079555;28;20444;-79
2021/06/10 08:22:39;;;;;;;6.60;5.97;;;22.40;3.40;;;;;;5113752;27;20489;-79
2021/06/10 08:25:08;;;;;;;7.03;6.33;;;22.40;1.00;;;;;;5087798;28;20485;-79
2021/06/10 08:27:38;;;;;;;6.83;6.23;;;22.40;1.00;;;;;;5091683;28;20484;-80
2021/06/10 08:30:08;;;;;;;7.30;6.70;;;22.40;1.00;;;;;;5086443;28;21742;-80
2021/06/10 08:32:36;;;;;;;7.47;6.80;;;22.40;1.00;;;;;;5079803;28;20443;-80
2021/06/10 08:35:04;;;;;;;7.20;6.60;;;22.50;1.00;;;;;;5083186;28;20501;-80
2021/06/10 08:37:32;;;;;;;7.57;6.87;;;22.50;1.00;;;;;;5090051;28;20947;-82
2021/06/10 08:40:00;;;;;;;7.00;6.40;;;22.60;1.00;;;;;;5078904;28;20832;-81
2021/06/10 08:42:28;;;;;;;7.50;6.80;;;22.60;1.00;;;;;;5090114;28;20452;-80
2021/06/10 08:44:59;;;;;;;7.70;6.93;;;22.70;1.00;;;;;;5081214;28;20541;-79
2021/06/10 08:47:27;;;;;;;6.87;6.13;;;22.80;1.00;;;;;;5084414;28;20484;-80
2021/06/10 08:49:55;;;;;;;9.23;6.70;;;22.80;1.00;;;;;;5085744;28;20482;-80
2021/06/10 08:52:22;;;;;;;7.93;7.17;;;22.90;1.00;;;;;;5116016;27;21296;-80
2021/06/10 08:54:50;;;;;;;7.37;6.67;;;22.90;1.00;;;;;;5094286;28;20469;-79
2021/06/10 08:57:18;;;;;;;8.17;7.23;;;22.90;1.00;;;;;;5079634;28;20576;-80
2021/06/10 08:59:45;;;;;;;8.77;7.10;;;23.00;1.00;;;;;;5077327;28;20459;-79
2021/06/10 09:02:14;;;;;;;8.50;7.70;;;23.00;1.00;;;;;;5089619;28;20448;-79
2021/06/10 09:04:42;;;;;;;8.20;7.40;;;23.00;1.00;;;;;;5079911;28;20533;-79
2021/06/10 09:07:10;;;;;;;8.83;8.00;;;23.00;1.00;;;;;;5083648;28;20477;-79
2021/06/10 09:09:40;;;;;;;8.70;8.00;;;23.10;1.00;;;;;;5081038;28;20460;-81
2021/06/10 09:12:10;;;;;;;7.83;7.17;;;23.10;1.00;;;;;;5083626;28;20461;-80
2021/06/10 09:14:57;;;;;;;8.47;7.67;;;23.10;1.00;;;;;;5088474;28;20463;-80
2021/06/10 09:17:34;;;;;;;7.63;6.77;;;23.30;1.00;;;;;;5084475;28;20491;-79
2021/06/10 09:20:24;;;;;;;6.70;6.10;;;23.40;1.00;;;;;;5092300;28;20464;-80
2021/06/10 09:23:07;;;;;;;8.43;7.53;;;23.40;1.00;;;;;;5096888;28;20559;-80
2021/06/10 09:25:35;;;;;;;8.43;7.67;;;23.40;1.00;;;;;;5075860;28;20490;-79
2021/06/10 09:28:04;;;;;;;7.10;6.50;;;23.40;1.00;;;;;;5110163;27;20464;-80
2021/06/10 09:30:34;;;;;;;7.27;6.67;;;23.30;1.00;;;;;;5120716;27;20899;-79
2021/06/10 09:33:09;;;;;;;7.37;6.77;;;23.30;1.00;;;;;;5081751;28;20467;-80
2021/06/10 09:35:40;;;;;;;7.90;7.10;;;23.30;1.00;;;;;;5081395;28;20511;-79
2021/06/10 09:38:14;;;;;;;7.70;7.10;;;23.40;1.00;;;;;;5082420;28;20458;-80
2021/06/10 09:40:42;;;;;;;7.77;7.17;;;23.40;1.00;;;;;;5084262;28;20468;-80
2021/06/10 09:43:10;;;;;;;6.70;6.20;;;23.40;1.00;;;;;;5084937;28;20453;-80
2021/06/10 09:45:43;;;;;;;9.50;8.40;;;23.50;1.00;;;;;;5081951;28;21111;-80
2021/06/10 09:48:12;;;;;;;9.83;9.03;;;23.60;1.00;;;;;;5086188;28;20457;-79
2021/06/10 09:50:43;;;;;;;10.77;9.77;;;23.50;1.00;;;;;;5077898;28;20473;-80
2021/06/10 09:53:16;;;;;;;9.57;8.77;;;23.60;1.00;;;;;;5092894;28;20492;-80
2021/06/10 09:55:45;;;;;;;9.93;9.07;;;23.60;1.00;;;;;;5079108;28;20473;-80
2021/06/10 09:58:32;;;;;;;7.63;6.83;;;23.60;1.00;;;;;;5075991;28;20840;-79
2021/06/10 10:01:01;;;;;;;9.27;8.47;;;23.60;1.00;;;;;;5084106;28;20460;-80
2021/06/10 10:03:44;;;;;;;10.87;8.53;;;23.50;1.00;;;;;;5113546;27;20471;-81
2021/06/10 10:06:19;;;;;;;9.13;8.30;;;23.50;1.00;;;;;;5114353;27;20479;-80
2021/06/10 10:08:49;;;;;;;9.43;8.53;;;23.50;1.00;;;;;;5116159;27;20793;-80
2021/06/10 10:11:18;;;;;;;8.80;8.10;;;23.50;1.00;;;;;;5089034;28;20468;-81
2021/06/10 10:13:47;;;;;;;607.27;270.60;;;23.50;1.00;;;;;;5088400;28;20948;-80
2021/06/10 10:16:16;;;;;;;19.13;16.03;;;23.50;1.00;;;;;;5079032;28;20509;-81
2021/06/10 10:18:46;;;;;;;12.33;11.13;;;23.50;1.00;;;;;;5077242;28;20867;-81
2021/06/10 10:21:14;;;;;;;11.83;10.77;;;23.50;1.00;;;;;;5113196;27;20447;-81
2021/06/10 10:23:42;;;;;;;16.30;12.00;;;23.50;1.00;;;;;;5114928;27;20459;-80
2021/06/10 10:26:10;;;;;;;11.10;10.10;;;23.60;1.00;;;;;;5091397;28;20478;-81
2021/06/10 10:28:38;;;;;;;15.80;14.20;;;23.60;1.00;;;;;;5080580;28;20467;-79
2021/06/10 10:31:11;;;;;;;14.33;13.13;;;23.60;1.00;;;;;;5081925;28;20490;-80
2021/06/10 10:33:45;;;;;;;14.20;12.90;;;23.70;1.00;;;;;;5084352;28;20453;-80
2021/06/10 10:36:26;;;;;;;12.60;11.50;;;23.60;1.00;;;;;;5078106;28;21053;-81
2021/06/10 10:38:58;;;;;;;13.00;11.70;;;23.50;1.00;;;;;;5116674;27;20509;-79
2021/06/10 10:41:27;;;;;;;12.50;11.50;;;23.60;1.00;;;;;;5116109;27;20654;-79
2021/06/10 10:44:21;;;;;;;11.60;10.60;;;23.70;1.00;;;;;;5103133;28;20464;-80
2021/06/10 10:47:03;;;;;;;12.37;11.27;;;23.80;1.00;;;;;;5084407;28;20552;-81
2021/06/10 10:49:40;;;;;;;11.73;10.73;;;23.90;1.00;;;;;;5085976;28;20502;-80
2021/06/10 10:52:28;;;;;;;13.30;12.07;;;24.00;1.00;;;;;;5085321;28;20531;-80
2021/06/10 10:55:14;;;;;;;13.07;11.90;;;24.00;1.00;;;;;;5099775;28;20442;-81
2021/06/10 10:57:44;;;;;;;11.13;10.13;;;24.10;1.00;;;;;;5111730;27;21080;-81
2021/06/10 11:00:20;;;;;;;13.70;12.50;;;24.00;1.00;;;;;;5096228;28;20582;-82
2021/06/10 11:03:23;;;;;;;12.30;11.20;;;24.00;99.90;;;;;;5082132;28;20486;-80
2021/06/10 11:05:53;;;;;;;11.30;10.20;;;24.00;1.00;;;;;;5092543;28;20482;-82
2021/06/10 11:08:22;;;;;;;13.30;12.17;;;24.00;1.00;;;;;;5103352;28;20465;-81
2021/06/10 11:11:01;;;;;;;12.67;11.50;;;24.00;1.00;;;;;;5096469;28;20560;-81
2021/06/10 11:13:46;;;;;;;10.80;9.90;;;24.00;99.90;;;;;;5121035;27;20890;-80
2021/06/10 11:16:15;;;;;;;11.97;10.87;;;24.00;1.00;;;;;;5087615;28;20924;-83
2021/06/10 11:18:48;;;;;;;12.67;11.43;;;23.90;1.00;;;;;;5084389;28;20457;-82
2021/06/10 11:21:50;;;;;;;12.93;11.73;;;24.00;1.00;;;;;;5089108;28;20515;-84
2021/06/10 11:24:21;;;;;;;15.70;13.17;;;24.00;99.90;;;;;;5117214;27;20553;-81
2021/06/10 11:27:00;;;;;;;12.93;11.57;;;24.10;99.90;;;;;;5123442;27;20505;-80
2021/06/10 11:29:29;;;;;;;11.90;10.70;;;24.10;99.90;;;;;;5065633;28;20464;-81
2021/06/10 11:32:20;;;;;;;10.33;9.53;;;24.10;99.90;;;;;;5076987;28;21047;-82
2021/06/10 11:34:53;;;;;;;12.40;11.20;;;24.20;99.90;;;;;;5111538;27;20471;-80
2021/06/10 11:37:25;;;;;;;11.43;10.53;;;24.30;99.90;;;;;;5082728;28;20572;-79
2021/06/10 11:39:53;;;;;;;13.70;12.30;;;24.30;99.90;;;;;;5085037;28;20462;-79
2021/06/10 11:42:24;;;;;;;15.17;13.53;;;24.30;99.90;;;;;;5077807;28;20457;-80
2021/06/10 11:44:53;;;;;;;12.97;11.80;;;24.30;99.90;;;;;;5081182;28;20467;-81
2021/06/10 11:47:26;;;;;;;12.27;11.10;;;24.30;99.90;;;;;;5115811;27;20454;-80
2021/06/10 11:49:55;;;;;;;12.00;11.00;;;24.30;99.90;;;;;;5084678;28;21054;-80
2021/06/10 11:52:24;;;;;;;14.50;12.00;;;24.30;1.00;;;;;;5082257;28;20450;-79
2021/06/10 11:55:17;;;;;;;11.70;10.70;;;24.40;1.00;;;;;;5083993;28;20917;-81
2021/06/10 11:57:52;;;;;;;13.67;12.47;;;24.40;1.00;;;;;;5079717;28;20551;-80
2021/06/10 12:00:28;;;;;;;12.13;11.03;;;24.50;99.90;;;;;;5099770;28;20440;-80
2021/06/10 12:02:57;;;;;;;13.30;12.10;;;24.50;99.90;;;;;;5093396;28;20446;-79
2021/06/10 12:05:26;;;;;;;13.87;12.07;;;24.50;99.90;;;;;;5090470;28;20580;-81
2021/06/10 12:08:19;;;;;;;13.87;12.37;;;24.50;99.90;;;;;;5090315;28;20541;-81
2021/06/10 12:10:54;;;;;;;12.03;10.93;;;24.40;99.90;;;;;;5076922;28;20470;-80
2021/06/10 12:13:27;;;;;;;11.00;10.03;;;24.40;99.90;;;;;;5123474;27;20730;-80
2021/06/10 12:15:56;;;;;;;11.30;10.30;;;24.50;99.90;;;;;;5087935;28;20477;-80
2021/06/10 12:18:24;;;;;;;12.30;11.30;;;24.50;99.90;;;;;;5090378;28;20453;-79
2021/06/10 12:20:56;;;;;;;11.67;10.57;;;24.60;99.90;;;;;;5104519;28;20455;-80
2021/06/10 12:23:29;;;;;;;12.33;11.23;;;24.60;99.90;;;;;;5087297;28;20453;-81
2021/06/10 12:25:59;;;;;;;12.00;10.80;;;24.60;99.90;;;;;;5087623;28;20485;-80
2021/06/10 12:28:36;;;;;;;10.90;10.00;;;24.50;99.90;;;;;;5086706;28;20989;-80
2021/06/10 12:31:11;;;;;;;11.33;10.33;;;24.60;99.90;;;;;;5087419;28;20461;-79
2021/06/10 12:33:40;;;;;;;11.27;10.17;;;24.70;99.90;;;;;;5098014;28;20461;-80
2021/06/10 12:36:18;;;;;;;10.67;9.77;;;24.70;99.90;;;;;;5084590;28;20501;-82
2021/06/10 12:38:56;;;;;;;11.23;10.13;;;24.80;99.90;;;;;;5088897;28;20888;-80
2021/06/10 12:41:27;;;;;;;10.40;9.60;;;24.80;99.90;;;;;;5100780;28;21014;-80
2021/06/10 12:44:08;;;;;;;9.97;9.17;;;24.80;99.90;;;;;;5087985;28;20464;-81
2021/06/10 12:46:44;;;;;;;10.13;9.33;;;24.80;99.90;;;;;;5087478;28;20493;-81
2021/06/10 12:49:12;;;;;;;9.90;9.07;;;24.80;99.90;;;;;;5112535;27;20540;-79
2021/06/10 12:51:42;;;;;;;10.73;9.73;;;24.70;99.90;;;;;;5084660;28;20486;-80
2021/06/10 12:54:13;;;;;;;10.53;9.53;;;24.70;99.90;;;;;;5086008;28;20822;-81
2021/06/10 12:56:51;;;;;;;10.57;9.57;;;24.60;99.90;;;;;;5118105;27;20480;-79
2021/06/10 12:59:22;;;;;;;11.57;10.60;;;24.40;99.90;;;;;;5092648;27;20484;-80
2021/06/10 13:02:17;;;;;;;11.30;10.20;;;24.20;99.90;;;;;;5085849;28;20488;-79
2021/06/10 13:04:46;;;;;;;13.33;11.63;;;24.00;99.90;;;;;;5091638;28;20453;-79